Attività con fini culturali e ricreativi - Codice Fiscale 91122750689  


METAR

LIBP 181650Z 22011KT CAVOK 13/M05 Q1014

Un interessante scalo tecnico delle scorse settimane. Giovedì 30 novembre ci ha fatto visita per rifornimento l'EH101 Merlin MM81495 (2-16) del 1º Gruppo elicotteri della Marina Militare di Sarzana-Luni durante un trasferimento da Taranto-Grottaglie. È la prima volta che immortaliamo un EH101 dell'Aviazione Navale a Pescara dopo anni di assenza. Questa macchina, con tutta la sua imponenza, è in grado di condurre operazioni speciali, operazioni anfibie e ricerca e soccorso (S.A.R.).

 

Ultimi caricamenti...


MM80730 PS-30 AB-206 Polizia di Stato

 


MM80730 PS-30 AB-206 Polizia di Stato

 


I-ADLW Mistral Air ATR 72-500 (72-212A)

Questo sito non utilizza cookie di profilazione. Il sito utilizza cookie tecnici, di analisi anonima di prima parte e di terze parti per servizi di social network.